createdAt,value
2022-08-30T00:01:12.501Z,101352.47
2022-08-30T00:03:46.206Z,101347.03
2022-08-30T00:06:15.875Z,101345.25
2022-08-30T00:08:44.162Z,101346.09
2022-08-30T00:11:14.118Z,101346.91
2022-08-30T00:13:43.398Z,101345.13
2022-08-30T00:16:12.457Z,101341.53
2022-08-30T00:18:40.394Z,101343.44
2022-08-30T00:21:07.595Z,101340.69
2022-08-30T00:23:34.349Z,101338.03
2022-08-30T00:26:02.619Z,101340.69
2022-08-30T00:28:30.254Z,101343.44
2022-08-30T00:30:57.038Z,101346.09
2022-08-30T00:33:23.992Z,101348.72
2022-08-30T00:35:50.742Z,101347.00
2022-08-30T00:38:17.571Z,101347.03
2022-08-30T00:40:45.297Z,101348.97
2022-08-30T00:43:19.723Z,101342.75
2022-08-30T00:45:47.261Z,101343.63
2022-08-30T00:48:14.092Z,101344.63
2022-08-30T00:50:47.949Z,101347.34
2022-08-30T00:53:19.397Z,101341.06
2022-08-30T00:55:46.837Z,101350.91
2022-08-30T00:58:21.388Z,101345.56
2022-08-30T01:00:50.738Z,101342.88
2022-08-30T01:03:17.852Z,101343.69
2022-08-30T01:05:44.834Z,101343.78
2022-08-30T01:08:14.108Z,101348.28
2022-08-30T01:10:40.880Z,101350.88
2022-08-30T01:13:08.193Z,101344.63
2022-08-30T01:15:35.805Z,101352.72
2022-08-30T01:18:03.548Z,101354.50
2022-08-30T01:21:01.343Z,101349.16
2022-08-30T01:23:28.881Z,101349.16
2022-08-30T01:25:57.365Z,101349.13
2022-08-30T01:28:26.581Z,101345.63
2022-08-30T01:30:54.242Z,101348.28
2022-08-30T01:33:21.850Z,101342.97
2022-08-30T01:35:56.415Z,101343.84
2022-08-30T01:38:36.468Z,101343.88
2022-08-30T01:41:30.296Z,101348.34
2022-08-30T01:44:00.001Z,101353.72
2022-08-30T01:46:31.164Z,101349.28
2022-08-30T01:48:58.593Z,101348.41
2022-08-30T01:51:27.379Z,101358.22
2022-08-30T01:53:54.309Z,101354.66
2022-08-30T01:56:22.599Z,101353.78
2022-08-30T01:58:49.786Z,101366.28
2022-08-30T02:01:19.351Z,101360.00
2022-08-30T02:03:46.462Z,101362.69
2022-08-30T02:06:17.265Z,101365.38
2022-08-30T02:08:44.868Z,101358.22
2022-08-30T02:11:12.531Z,101355.56
2022-08-30T02:13:40.406Z,101352.84
2022-08-30T02:16:09.303Z,101370.72
2022-08-30T02:18:37.347Z,101360.00
2022-08-30T02:21:04.089Z,101362.69
2022-08-30T02:23:31.312Z,101355.56
2022-08-30T02:25:58.334Z,101354.66
2022-08-30T02:28:25.823Z,101360.91
2022-08-30T02:30:52.892Z,101353.81
2022-08-30T02:33:19.849Z,101353.78
2022-08-30T02:35:46.667Z,101348.41
2022-08-30T02:38:13.964Z,101352.00
2022-08-30T02:40:40.962Z,101343.03
2022-08-30T02:43:07.911Z,101341.28
2022-08-30T02:45:34.748Z,101342.13
2022-08-30T02:48:01.672Z,101336.81
2022-08-30T02:50:28.786Z,101342.19
2022-08-30T02:52:55.670Z,101340.41
2022-08-30T02:55:23.143Z,101342.19
2022-08-30T02:57:49.913Z,101334.16
2022-08-30T03:00:19.644Z,101341.28
2022-08-30T03:02:46.901Z,101338.63
2022-08-30T03:05:15.646Z,101335.94
2022-08-30T03:07:42.490Z,101331.50
2022-08-30T03:10:10.084Z,101335.06
2022-08-30T03:12:36.890Z,101330.59
2022-08-30T03:15:06.012Z,101336.84
2022-08-30T03:17:32.748Z,101332.38
2022-08-30T03:20:00.896Z,101327.03
2022-08-30T03:22:28.496Z,101331.50
2022-08-30T03:24:59.610Z,101329.72
2022-08-30T03:27:27.108Z,101331.50
2022-08-30T03:29:54.602Z,101333.25
2022-08-30T03:32:21.620Z,101335.94
2022-08-30T03:34:48.610Z,101338.63
2022-08-30T03:37:15.380Z,101343.13
2022-08-30T03:39:42.479Z,101335.06
2022-08-30T03:42:10.586Z,101330.59
2022-08-30T03:44:37.572Z,101339.53
2022-08-30T03:47:05.605Z,101338.66
2022-08-30T03:49:32.358Z,101343.09
2022-08-30T03:51:59.208Z,101343.09
2022-08-30T03:54:26.136Z,101331.53
2022-08-30T03:56:52.993Z,101338.66
2022-08-30T03:59:19.816Z,101330.63
2022-08-30T04:01:47.913Z,101338.66
2022-08-30T04:04:20.547Z,101339.56
2022-08-30T04:06:48.045Z,101344.03
2022-08-30T04:09:14.731Z,101346.69
2022-08-30T04:11:41.451Z,101344.91
2022-08-30T04:14:08.155Z,101348.47
2022-08-30T04:16:35.214Z,101345.81
2022-08-30T04:19:02.006Z,101344.91
2022-08-30T04:21:42.853Z,101349.34
2022-08-30T04:24:11.309Z,101341.34
2022-08-30T04:26:38.267Z,101352.06
2022-08-30T04:29:05.704Z,101344.03
2022-08-30T04:31:35.507Z,101350.25
2022-08-30T04:34:02.745Z,101346.69
2022-08-30T04:36:29.659Z,101341.34
2022-08-30T04:38:56.733Z,101352.03
2022-08-30T04:41:24.549Z,101352.06
2022-08-30T04:43:51.639Z,101357.41
2022-08-30T04:46:19.425Z,101346.69
2022-08-30T04:48:46.714Z,101338.66
2022-08-30T04:51:16.098Z,101348.50
2022-08-30T04:53:43.510Z,101355.59
2022-08-30T04:56:13.110Z,101359.16
2022-08-30T04:58:39.883Z,101352.06
2022-08-30T05:01:12.552Z,101351.13
2022-08-30T05:03:41.115Z,101366.31
2022-08-30T05:06:08.438Z,101369.88
2022-08-30T05:08:35.417Z,101372.53
2022-08-30T05:11:04.590Z,101375.22
2022-08-30T05:13:35.655Z,101377.00
2022-08-30T05:16:06.116Z,101371.66
2022-08-30T05:18:33.756Z,101374.34
2022-08-30T05:21:07.756Z,101370.78
2022-08-30T05:23:35.568Z,101370.75
2022-08-30T05:26:08.405Z,101377.88
2022-08-30T05:28:36.372Z,101377.88
2022-08-30T05:31:13.947Z,101384.13
2022-08-30T05:33:41.876Z,101390.38
2022-08-30T05:36:10.094Z,101392.19
2022-08-30T05:38:37.376Z,101390.38
2022-08-30T05:41:10.575Z,101392.16
2022-08-30T05:43:38.042Z,101388.59
2022-08-30T05:46:07.978Z,101386.81
2022-08-30T05:48:38.176Z,101393.06
2022-08-30T05:51:11.594Z,101389.50
2022-08-30T05:53:39.820Z,101393.94
2022-08-30T05:56:10.618Z,101387.72
2022-08-30T05:58:38.097Z,101396.63
2022-08-30T06:01:05.312Z,101399.28
2022-08-30T06:03:32.999Z,101387.72
2022-08-30T06:06:00.686Z,101401.06
2022-08-30T06:08:27.795Z,101391.28
2022-08-30T06:10:55.160Z,101383.28
2022-08-30T06:13:22.498Z,101391.28
2022-08-30T06:15:49.720Z,101391.28
2022-08-30T06:18:16.810Z,101386.81
2022-08-30T06:20:44.949Z,101395.72
2022-08-30T06:23:11.788Z,101383.25
2022-08-30T06:25:42.041Z,101386.84
2022-08-30T06:28:09.807Z,101390.38
2022-08-30T06:30:36.698Z,101388.59
2022-08-30T06:33:12.045Z,101388.59
2022-08-30T06:35:56.800Z,101383.25
2022-08-30T06:38:35.702Z,101391.28
2022-08-30T06:41:12.864Z,101388.59
2022-08-30T06:43:40.093Z,101397.50
2022-08-30T06:46:09.954Z,101399.28
2022-08-30T06:48:51.053Z,101402.84
2022-08-30T06:51:22.737Z,101402.81
2022-08-30T06:53:50.341Z,101394.81
2022-08-30T06:56:18.961Z,101386.81
2022-08-30T06:58:46.969Z,101398.38
2022-08-30T07:01:16.084Z,101405.53
2022-08-30T07:03:43.050Z,101388.59
2022-08-30T07:06:16.476Z,101394.81
2022-08-30T07:08:47.086Z,101391.25
2022-08-30T07:11:14.913Z,101396.59
2022-08-30T07:13:42.005Z,101388.47
2022-08-30T07:16:12.916Z,101390.25
2022-08-30T07:18:54.830Z,101392.09
2022-08-30T07:21:30.150Z,101394.75
2022-08-30T07:23:58.798Z,101391.19
2022-08-30T07:26:29.206Z,101394.72
2022-08-30T07:28:57.415Z,101396.53
2022-08-30T07:31:25.203Z,101392.94
2022-08-30T07:33:52.520Z,101390.31
2022-08-30T07:36:21.828Z,101404.56
2022-08-30T07:38:50.189Z,101402.78
2022-08-30T07:41:29.115Z,101407.22
2022-08-30T07:43:56.679Z,101417.88
2022-08-30T07:46:24.596Z,101410.75
2022-08-30T07:48:54.236Z,101408.91
2022-08-30T07:51:24.225Z,101415.03
2022-08-30T07:53:51.448Z,101414.16
2022-08-30T07:56:18.705Z,101406.13
2022-08-30T07:58:45.415Z,101414.16
2022-08-30T08:01:14.666Z,101416.78
2022-08-30T08:06:50.732Z,101421.25
2022-08-30T08:09:21.325Z,101423.97
2022-08-30T08:11:57.937Z,101423.84
2022-08-30T08:14:41.594Z,101419.38
2022-08-30T08:17:20.044Z,101423.81
2022-08-30T08:19:46.988Z,101421.06
2022-08-30T08:22:21.732Z,101424.63
2022-08-30T08:28:32.655Z,101418.38
2022-08-30T08:31:52.565Z,101411.22
2022-08-30T08:34:23.338Z,101419.22
2022-08-30T08:45:00.839Z,101430.66
2022-08-30T08:48:35.912Z,101429.66
2022-08-30T08:51:44.853Z,101425.16
2022-08-30T08:58:56.801Z,101431.09
2022-08-30T09:27:52.003Z,101419.41
2022-08-30T09:30:30.708Z,101411.47
2022-08-30T09:33:02.930Z,101413.28
2022-08-30T09:35:54.233Z,101417.47
2022-08-30T09:38:31.173Z,101423.84
2022-08-30T09:41:04.145Z,101421.00
2022-08-30T09:43:33.884Z,101416.38
2022-08-30T10:07:10.412Z,101391.81
2022-08-30T10:19:11.920Z,101386.09
2022-08-30T10:22:58.887Z,101395.75
2022-08-30T10:25:30.564Z,101395.88
2022-08-30T10:28:03.912Z,101402.09
2022-08-30T10:31:34.848Z,101403.88
2022-08-30T10:46:45.129Z,101400.78
2022-08-30T10:49:31.859Z,101390.81
2022-08-30T10:52:23.599Z,101391.09
2022-08-30T11:04:16.524Z,101392.38
2022-08-30T11:07:18.839Z,101388.03
2022-08-30T11:10:29.155Z,101393.47
2022-08-30T11:13:16.680Z,101384.97
2022-08-30T11:25:08.450Z,101389.13
2022-08-30T11:28:36.339Z,101385.28
2022-08-30T11:36:18.937Z,101377.94
2022-08-30T11:44:10.910Z,101374.06
2022-08-30T11:51:09.729Z,101370.56
2022-08-30T11:53:58.519Z,101364.81
2022-08-30T11:56:31.520Z,101370.88
2022-08-30T11:59:06.870Z,101366.13
2022-08-30T12:01:50.752Z,101365.75
2022-08-30T12:04:26.510Z,101360.94
2022-08-30T12:07:05.746Z,101361.25
2022-08-30T12:09:35.455Z,101363.63
2022-08-30T12:17:36.387Z,101357.78
2022-08-30T12:20:06.247Z,101359.50
2022-08-30T12:26:52.362Z,101360.41
2022-08-30T12:33:54.683Z,101345.59
2022-08-30T12:36:56.108Z,101353.00
2022-08-30T12:39:27.826Z,101333.84
2022-08-30T12:41:55.971Z,101342.34
2022-08-30T12:44:29.139Z,101341.06
2022-08-30T12:46:59.777Z,101335.19
2022-08-30T12:49:33.427Z,101337.50
2022-08-30T12:52:23.495Z,101344.81
2022-08-30T13:04:16.015Z,101336.63
2022-08-30T13:07:42.334Z,101332.91
2022-08-30T13:11:05.842Z,101333.94
2022-08-30T13:15:01.491Z,101327.41
2022-08-30T13:21:25.002Z,101313.75
2022-08-30T13:24:57.596Z,101325.56
2022-08-30T13:27:25.467Z,101317.94
2022-08-30T13:30:42.634Z,101316.31
2022-08-30T13:33:53.168Z,101307.28
2022-08-30T14:26:38.749Z,101261.91
2022-08-30T14:37:26.016Z,101266.25
2022-08-30T14:40:00.494Z,101264.25
2022-08-30T14:42:35.615Z,101265.00
2022-08-30T14:45:11.834Z,101270.41
2022-08-30T15:16:14.097Z,101238.94
2022-08-30T15:18:45.562Z,101252.41
2022-08-30T15:21:28.686Z,101229.56
2022-08-30T15:24:04.906Z,101231.25
2022-08-30T15:26:32.182Z,101237.44
2022-08-30T15:29:05.786Z,101227.63
2022-08-30T15:33:23.527Z,101238.28
2022-08-30T15:45:20.933Z,101219.72
2022-08-30T16:21:11.154Z,101199.06
2022-08-30T16:23:43.191Z,101198.81
2022-08-30T16:29:20.704Z,101203.56
2022-08-30T16:36:12.068Z,101197.72
2022-08-30T18:59:37.738Z,101285.16
2022-08-30T19:10:52.070Z,101298.69
2022-08-30T19:20:10.912Z,101307.81
2022-08-30T19:23:08.814Z,101300.75
2022-08-30T19:26:08.798Z,101295.44
2022-08-30T19:28:38.373Z,101301.66
2022-08-30T19:31:07.057Z,101298.13
2022-08-30T19:33:51.473Z,101294.63
2022-08-30T19:36:42.537Z,101291.94
2022-08-30T19:39:12.011Z,101289.16
2022-08-30T19:41:42.087Z,101286.66
2022-08-30T19:44:20.485Z,101297.47
2022-08-30T19:46:47.862Z,101293.94
2022-08-30T19:49:14.867Z,101300.16
2022-08-30T19:52:35.902Z,101295.75
2022-08-30T19:55:18.662Z,101293.00
2022-08-30T19:57:50.676Z,101298.31
2022-08-30T20:00:18.251Z,101293.25
2022-08-30T20:02:51.276Z,101294.34
2022-08-30T20:05:21.711Z,101278.06
2022-08-30T20:07:51.556Z,101286.16
2022-08-30T20:11:11.187Z,101295.09
2022-08-30T20:13:38.047Z,101297.13
2022-08-30T20:16:10.439Z,101295.25
2022-08-30T20:19:06.257Z,101290.91
2022-08-30T20:21:37.263Z,101298.97
2022-08-30T20:24:10.840Z,101291.00
2022-08-30T20:26:39.739Z,101294.53
2022-08-30T20:29:14.680Z,101299.06
2022-08-30T20:31:44.170Z,101299.09
2022-08-30T20:35:19.666Z,101298.22
2022-08-30T20:38:08.484Z,101305.63
2022-08-30T20:40:38.932Z,101303.88
2022-08-30T20:43:12.141Z,101303.94
2022-08-30T20:45:40.770Z,101298.41
2022-08-30T20:48:10.855Z,101292.28
2022-08-30T20:50:39.137Z,101304.78
2022-08-30T20:53:06.027Z,101303.09
2022-08-30T20:55:33.067Z,101302.09
2022-08-30T20:57:59.997Z,101294.97
2022-08-30T21:00:27.752Z,101294.13
2022-08-30T21:02:54.646Z,101293.13
2022-08-30T21:05:21.485Z,101297.63
2022-08-30T21:07:53.406Z,101289.66
2022-08-30T21:10:23.577Z,101292.19
2022-08-30T21:12:57.670Z,101299.41
2022-08-30T21:15:37.552Z,101295.88
2022-08-30T21:18:07.707Z,101302.09
2022-08-30T21:20:40.532Z,101309.25
2022-08-30T21:23:16.417Z,101303.94
2022-08-30T21:25:45.759Z,101308.41
2022-08-30T21:28:34.759Z,101308.34
2022-08-30T21:31:23.220Z,101308.41
2022-08-30T21:33:52.186Z,101314.69
2022-08-30T21:36:38.321Z,101318.31
2022-08-30T21:39:06.628Z,101318.38
2022-08-30T21:41:34.972Z,101320.22
2022-08-30T21:44:04.707Z,101325.59
2022-08-30T21:46:32.657Z,101327.28
2022-08-30T21:49:52.118Z,101328.22
2022-08-30T21:52:27.167Z,101323.75
2022-08-30T21:54:55.281Z,101325.44
2022-08-30T22:00:35.929Z,101330.84
2022-08-30T22:03:04.169Z,101328.28
2022-08-30T22:05:31.502Z,101330.19
2022-08-30T22:07:58.603Z,101333.78
2022-08-30T22:10:36.328Z,101337.34
2022-08-30T22:13:05.578Z,101346.31
2022-08-30T22:16:48.142Z,101342.75
2022-08-30T22:24:14.611Z,101347.25
2022-08-30T22:26:41.512Z,101343.75
2022-08-30T22:33:33.145Z,101346.44
2022-08-30T22:48:49.429Z,101352.03
2022-08-30T22:51:18.862Z,101340.44
2022-08-30T22:53:52.705Z,101336.91
2022-08-30T22:56:22.271Z,101337.00
2022-08-30T22:58:49.864Z,101341.50
2022-08-30T23:01:21.103Z,101343.38
2022-08-30T23:03:50.250Z,101345.34
2022-08-30T23:06:17.476Z,101346.28
2022-08-30T23:08:44.500Z,101345.31
2022-08-30T23:11:11.621Z,101334.72
2022-08-30T23:13:43.836Z,101348.16
2022-08-30T23:16:13.414Z,101351.72
2022-08-30T23:18:43.536Z,101346.41
2022-08-30T23:21:12.301Z,101344.69
2022-08-30T23:23:58.234Z,101349.16
2022-08-30T23:26:43.681Z,101342.94
2022-08-30T23:29:28.979Z,101343.88
2022-08-30T23:32:14.933Z,101350.06
2022-08-30T23:35:00.504Z,101351.88
2022-08-30T23:37:45.834Z,101352.75
2022-08-30T23:40:35.484Z,101367.09
2022-08-30T23:43:23.490Z,101363.53
2022-08-30T23:46:08.797Z,101355.59
2022-08-30T23:48:57.098Z,101358.28
2022-08-30T23:51:42.363Z,101352.84
2022-08-30T23:54:27.591Z,101355.63
2022-08-30T23:57:12.918Z,101358.38
2022-08-30T23:59:58.311Z,101364.53
